sensor_id;sensor_type;location;lat;lon;timestamp;P1;durP1;ratioP1;P2;durP2;ratioP2
41221;SDS011;26952;42.884;23.918;2022-09-06T00:01:19;82.13;;;77.63;;
41221;SDS011;26952;42.884;23.918;2022-09-06T00:03:47;75.75;;;71.55;;
41221;SDS011;26952;42.884;23.918;2022-09-06T00:06:13;74.68;;;70.40;;
41221;SDS011;26952;42.884;23.918;2022-09-06T00:08:41;80.88;;;75.78;;
41221;SDS011;26952;42.884;23.918;2022-09-06T00:11:08;75.18;;;71.18;;
41221;SDS011;26952;42.884;23.918;2022-09-06T00:13:33;79.03;;;74.28;;
41221;SDS011;26952;42.884;23.918;2022-09-06T00:16:06;86.95;;;82.10;;
41221;SDS011;26952;42.884;23.918;2022-09-06T00:18:33;79.72;;;75.45;;
41221;SDS011;26952;42.884;23.918;2022-09-06T00:20:58;84.22;;;79.68;;
41221;SDS011;26952;42.884;23.918;2022-09-06T00:23:24;81.35;;;77.07;;
41221;SDS011;26952;42.884;23.918;2022-09-06T00:25:49;82.75;;;78.28;;
41221;SDS011;26952;42.884;23.918;2022-09-06T00:28:15;85.10;;;80.30;;
41221;SDS011;26952;42.884;23.918;2022-09-06T00:30:40;87.82;;;82.95;;
41221;SDS011;26952;42.884;23.918;2022-09-06T00:33:06;82.57;;;77.90;;
41221;SDS011;26952;42.884;23.918;2022-09-06T00:35:31;79.85;;;75.40;;
41221;SDS011;26952;42.884;23.918;2022-09-06T00:37:57;76.35;;;72.05;;
41221;SDS011;26952;42.884;23.918;2022-09-06T00:40:25;81.03;;;76.45;;
41221;SDS011;26952;42.884;23.918;2022-09-06T00:42:53;78.43;;;74.13;;
41221;SDS011;26952;42.884;23.918;2022-09-06T00:45:20;81.28;;;76.60;;
41221;SDS011;26952;42.884;23.918;2022-09-06T00:47:45;75.97;;;71.78;;
41221;SDS011;26952;42.884;23.918;2022-09-06T00:50:12;79.75;;;75.22;;
41221;SDS011;26952;42.884;23.918;2022-09-06T00:52:39;80.18;;;75.35;;
41221;SDS011;26952;42.884;23.918;2022-09-06T00:55:07;79.85;;;75.68;;
41221;SDS011;26952;42.884;23.918;2022-09-06T00:57:32;78.15;;;73.50;;
41221;SDS011;26952;42.884;23.918;2022-09-06T00:59:59;83.10;;;78.53;;
41221;SDS011;26952;42.884;23.918;2022-09-06T01:02:26;79.50;;;75.13;;
41221;SDS011;26952;42.884;23.918;2022-09-06T01:04:51;75.70;;;71.65;;
41221;SDS011;26952;42.884;23.918;2022-09-06T01:21:18;70.57;;;66.57;;
41221;SDS011;26952;42.884;23.918;2022-09-06T01:38:01;70.47;;;66.32;;
41221;SDS011;26952;42.884;23.918;2022-09-06T01:40:28;67.00;;;63.35;;
41221;SDS011;26952;42.884;23.918;2022-09-06T01:42:54;71.13;;;67.22;;
41221;SDS011;26952;42.884;23.918;2022-09-06T01:45:22;75.10;;;71.25;;
41221;SDS011;26952;42.884;23.918;2022-09-06T01:53:30;70.75;;;66.93;;
41221;SDS011;26952;42.884;23.918;2022-09-06T01:59:00;59.70;;;56.17;;
41221;SDS011;26952;42.884;23.918;2022-09-06T02:01:32;70.45;;;66.40;;
41221;SDS011;26952;42.884;23.918;2022-09-06T02:04:06;70.70;;;66.57;;
41221;SDS011;26952;42.884;23.918;2022-09-06T02:06:44;72.20;;;68.30;;
41221;SDS011;26952;42.884;23.918;2022-09-06T02:09:15;66.75;;;62.88;;
41221;SDS011;26952;42.884;23.918;2022-09-06T02:11:49;71.28;;;67.32;;
41221;SDS011;26952;42.884;23.918;2022-09-06T02:14:19;66.07;;;62.63;;
41221;SDS011;26952;42.884;23.918;2022-09-06T02:16:51;68.78;;;64.90;;
41221;SDS011;26952;42.884;23.918;2022-09-06T02:22:18;61.30;;;57.70;;
41221;SDS011;26952;42.884;23.918;2022-09-06T02:24:48;64.67;;;60.80;;
41221;SDS011;26952;42.884;23.918;2022-09-06T02:27:15;70.70;;;66.57;;
41221;SDS011;26952;42.884;23.918;2022-09-06T02:29:41;78.53;;;74.50;;
41221;SDS011;26952;42.884;23.918;2022-09-06T02:32:08;75.70;;;71.53;;
41221;SDS011;26952;42.884;23.918;2022-09-06T02:34:38;73.30;;;69.45;;
41221;SDS011;26952;42.884;23.918;2022-09-06T02:37:05;68.75;;;64.90;;
41221;SDS011;26952;42.884;23.918;2022-09-06T02:39:31;71.72;;;67.40;;
41221;SDS011;26952;42.884;23.918;2022-09-06T02:41:57;63.97;;;60.33;;
41221;SDS011;26952;42.884;23.918;2022-09-06T02:44:23;62.20;;;58.72;;
41221;SDS011;26952;42.884;23.918;2022-09-06T02:46:48;63.78;;;60.35;;
41221;SDS011;26952;42.884;23.918;2022-09-06T02:49:14;59.53;;;56.17;;
41221;SDS011;26952;42.884;23.918;2022-09-06T02:51:39;62.63;;;59.28;;
41221;SDS011;26952;42.884;23.918;2022-09-06T02:54:05;66.03;;;62.15;;
41221;SDS011;26952;42.884;23.918;2022-09-06T02:56:31;65.50;;;62.17;;
41221;SDS011;26952;42.884;23.918;2022-09-06T02:58:58;63.95;;;60.33;;
41221;SDS011;26952;42.884;23.918;2022-09-06T03:01:24;69.65;;;65.70;;
41221;SDS011;26952;42.884;23.918;2022-09-06T03:03:49;64.13;;;60.65;;
41221;SDS011;26952;42.884;23.918;2022-09-06T03:06:14;65.25;;;61.70;;
41221;SDS011;26952;42.884;23.918;2022-09-06T03:08:40;66.13;;;62.22;;
41221;SDS011;26952;42.884;23.918;2022-09-06T03:11:05;66.97;;;63.53;;
41221;SDS011;26952;42.884;23.918;2022-09-06T03:13:31;68.43;;;64.63;;
41221;SDS011;26952;42.884;23.918;2022-09-06T03:15:57;62.92;;;59.42;;
41221;SDS011;26952;42.884;23.918;2022-09-06T03:18:24;67.60;;;64.07;;
41221;SDS011;26952;42.884;23.918;2022-09-06T03:20:51;61.38;;;57.97;;
41221;SDS011;26952;42.884;23.918;2022-09-06T03:23:18;58.85;;;54.85;;
41221;SDS011;26952;42.884;23.918;2022-09-06T03:25:44;60.40;;;57.10;;
41221;SDS011;26952;42.884;23.918;2022-09-06T03:28:09;67.93;;;64.18;;
41221;SDS011;26952;42.884;23.918;2022-09-06T03:30:35;60.08;;;56.72;;
41221;SDS011;26952;42.884;23.918;2022-09-06T03:33:01;62.75;;;59.38;;
41221;SDS011;26952;42.884;23.918;2022-09-06T03:35:26;56.28;;;53.17;;
41221;SDS011;26952;42.884;23.918;2022-09-06T03:37:51;63.60;;;60.20;;
41221;SDS011;26952;42.884;23.918;2022-09-06T03:40:17;58.60;;;55.63;;
41221;SDS011;26952;42.884;23.918;2022-09-06T03:42:42;60.53;;;56.95;;
41221;SDS011;26952;42.884;23.918;2022-09-06T03:45:08;60.80;;;57.60;;
41221;SDS011;26952;42.884;23.918;2022-09-06T03:47:34;61.13;;;57.83;;
41221;SDS011;26952;42.884;23.918;2022-09-06T03:49:59;59.47;;;56.13;;
41221;SDS011;26952;42.884;23.918;2022-09-06T03:52:24;56.40;;;53.10;;
41221;SDS011;26952;42.884;23.918;2022-09-06T03:54:50;58.03;;;54.92;;
41221;SDS011;26952;42.884;23.918;2022-09-06T03:57:15;60.42;;;57.03;;
41221;SDS011;26952;42.884;23.918;2022-09-06T03:59:41;65.70;;;62.13;;
41221;SDS011;26952;42.884;23.918;2022-09-06T04:02:06;66.45;;;62.97;;
41221;SDS011;26952;42.884;23.918;2022-09-06T04:04:31;63.67;;;59.92;;
41221;SDS011;26952;42.884;23.918;2022-09-06T04:06:57;66.20;;;62.75;;
41221;SDS011;26952;42.884;23.918;2022-09-06T04:09:22;66.00;;;62.25;;
41221;SDS011;26952;42.884;23.918;2022-09-06T04:11:48;65.18;;;61.47;;
41221;SDS011;26952;42.884;23.918;2022-09-06T04:14:13;66.07;;;62.28;;
41221;SDS011;26952;42.884;23.918;2022-09-06T04:16:39;34.58;;;32.38;;
41221;SDS011;26952;42.884;23.918;2022-09-06T04:19:04;32.95;;;30.83;;
41221;SDS011;26952;42.884;23.918;2022-09-06T04:21:29;35.33;;;33.30;;
41221;SDS011;26952;42.884;23.918;2022-09-06T04:23:55;33.78;;;31.75;;
41221;SDS011;26952;42.884;23.918;2022-09-06T04:26:21;30.45;;;28.60;;
41221;SDS011;26952;42.884;23.918;2022-09-06T04:28:46;29.67;;;27.88;;
41221;SDS011;26952;42.884;23.918;2022-09-06T04:31:12;34.70;;;32.65;;
41221;SDS011;26952;42.884;23.918;2022-09-06T04:33:37;35.20;;;33.20;;
41221;SDS011;26952;42.884;23.918;2022-09-06T04:36:05;36.00;;;33.80;;
41221;SDS011;26952;42.884;23.918;2022-09-06T04:38:34;38.38;;;36.05;;
41221;SDS011;26952;42.884;23.918;2022-09-06T04:41:07;36.45;;;34.55;;
41221;SDS011;26952;42.884;23.918;2022-09-06T04:43:34;39.33;;;37.00;;
41221;SDS011;26952;42.884;23.918;2022-09-06T04:46:08;44.83;;;42.13;;
41221;SDS011;26952;42.884;23.918;2022-09-06T04:48:40;41.50;;;38.97;;
41221;SDS011;26952;42.884;23.918;2022-09-06T04:51:06;37.17;;;34.70;;
41221;SDS011;26952;42.884;23.918;2022-09-06T04:53:31;34.53;;;32.42;;
41221;SDS011;26952;42.884;23.918;2022-09-06T04:55:57;37.80;;;35.22;;
41221;SDS011;26952;42.884;23.918;2022-09-06T04:58:23;35.03;;;32.72;;
41221;SDS011;26952;42.884;23.918;2022-09-06T05:00:49;31.30;;;29.50;;
41221;SDS011;26952;42.884;23.918;2022-09-06T05:03:15;34.00;;;32.00;;
41221;SDS011;26952;42.884;23.918;2022-09-06T05:05:40;34.08;;;32.15;;
41221;SDS011;26952;42.884;23.918;2022-09-06T05:08:05;35.25;;;33.05;;
41221;SDS011;26952;42.884;23.918;2022-09-06T05:10:31;34.60;;;32.60;;
41221;SDS011;26952;42.884;23.918;2022-09-06T05:12:56;29.77;;;28.13;;
41221;SDS011;26952;42.884;23.918;2022-09-06T05:15:22;35.70;;;32.40;;
41221;SDS011;26952;42.884;23.918;2022-09-06T05:17:47;66.60;;;45.72;;
41221;SDS011;26952;42.884;23.918;2022-09-06T05:20:13;33.58;;;31.38;;
41221;SDS011;26952;42.884;23.918;2022-09-06T05:22:39;30.67;;;28.67;;
41221;SDS011;26952;42.884;23.918;2022-09-06T05:25:05;39.88;;;36.33;;
41221;SDS011;26952;42.884;23.918;2022-09-06T05:27:32;31.60;;;29.42;;
41221;SDS011;26952;42.884;23.918;2022-09-06T05:29:57;31.75;;;29.73;;
41221;SDS011;26952;42.884;23.918;2022-09-06T05:32:23;34.38;;;32.35;;
41221;SDS011;26952;42.884;23.918;2022-09-06T05:34:48;35.30;;;33.20;;
41221;SDS011;26952;42.884;23.918;2022-09-06T05:37:13;38.00;;;35.50;;
41221;SDS011;26952;42.884;23.918;2022-09-06T05:39:39;37.45;;;35.45;;
41221;SDS011;26952;42.884;23.918;2022-09-06T05:42:04;44.92;;;42.38;;
41221;SDS011;26952;42.884;23.918;2022-09-06T05:44:36;47.30;;;44.47;;
41221;SDS011;26952;42.884;23.918;2022-09-06T05:47:02;48.15;;;45.60;;
41221;SDS011;26952;42.884;23.918;2022-09-06T05:49:29;56.17;;;52.95;;
41221;SDS011;26952;42.884;23.918;2022-09-06T05:51:55;60.03;;;56.92;;
41221;SDS011;26952;42.884;23.918;2022-09-06T05:54:21;60.25;;;57.13;;
41221;SDS011;26952;42.884;23.918;2022-09-06T05:56:46;58.45;;;55.40;;
41221;SDS011;26952;42.884;23.918;2022-09-06T05:59:12;58.55;;;55.45;;
41221;SDS011;26952;42.884;23.918;2022-09-06T06:01:45;65.45;;;62.17;;
41221;SDS011;26952;42.884;23.918;2022-09-06T06:04:14;66.53;;;62.58;;
41221;SDS011;26952;42.884;23.918;2022-09-06T06:06:42;89.05;;;83.63;;
41221;SDS011;26952;42.884;23.918;2022-09-06T06:09:08;78.18;;;74.13;;
41221;SDS011;26952;42.884;23.918;2022-09-06T06:11:34;76.80;;;72.78;;
41221;SDS011;26952;42.884;23.918;2022-09-06T06:14:00;83.22;;;79.10;;
41221;SDS011;26952;42.884;23.918;2022-09-06T06:16:26;94.80;;;89.90;;
41221;SDS011;26952;42.884;23.918;2022-09-06T06:18:53;100.70;;;95.35;;
41221;SDS011;26952;42.884;23.918;2022-09-06T06:21:20;87.30;;;82.60;;
41221;SDS011;26952;42.884;23.918;2022-09-06T06:23:55;79.07;;;74.90;;
41221;SDS011;26952;42.884;23.918;2022-09-06T06:26:22;89.13;;;84.50;;
41221;SDS011;26952;42.884;23.918;2022-09-06T06:28:48;86.03;;;81.55;;
41221;SDS011;26952;42.884;23.918;2022-09-06T06:31:14;83.22;;;78.90;;
41221;SDS011;26952;42.884;23.918;2022-09-06T06:33:40;76.50;;;72.35;;
41221;SDS011;26952;42.884;23.918;2022-09-06T06:36:07;68.50;;;65.03;;
41221;SDS011;26952;42.884;23.918;2022-09-06T06:38:45;69.17;;;65.33;;
41221;SDS011;26952;42.884;23.918;2022-09-06T06:41:13;63.22;;;59.80;;
41221;SDS011;26952;42.884;23.918;2022-09-06T06:43:40;37.05;;;34.97;;
41221;SDS011;26952;42.884;23.918;2022-09-06T06:46:07;25.13;;;23.70;;
41221;SDS011;26952;42.884;23.918;2022-09-06T06:48:34;20.08;;;19.05;;
41221;SDS011;26952;42.884;23.918;2022-09-06T06:51:00;31.05;;;29.25;;
41221;SDS011;26952;42.884;23.918;2022-09-06T06:53:26;42.22;;;39.85;;
41221;SDS011;26952;42.884;23.918;2022-09-06T06:55:51;57.25;;;54.15;;
41221;SDS011;26952;42.884;23.918;2022-09-06T06:58:17;59.83;;;56.85;;
41221;SDS011;26952;42.884;23.918;2022-09-06T07:00:43;58.65;;;55.72;;
41221;SDS011;26952;42.884;23.918;2022-09-06T07:03:09;54.60;;;51.80;;
41221;SDS011;26952;42.884;23.918;2022-09-06T07:05:36;43.70;;;41.50;;
41221;SDS011;26952;42.884;23.918;2022-09-06T07:08:02;54.65;;;51.47;;
41221;SDS011;26952;42.884;23.918;2022-09-06T07:10:29;34.15;;;32.38;;
41221;SDS011;26952;42.884;23.918;2022-09-06T07:12:54;42.83;;;40.47;;
41221;SDS011;26952;42.884;23.918;2022-09-06T07:15:20;25.60;;;24.20;;
41221;SDS011;26952;42.884;23.918;2022-09-06T07:17:45;30.45;;;28.50;;
41221;SDS011;26952;42.884;23.918;2022-09-06T07:20:11;19.98;;;18.60;;
41221;SDS011;26952;42.884;23.918;2022-09-06T07:22:36;49.42;;;46.88;;
41221;SDS011;26952;42.884;23.918;2022-09-06T07:25:03;52.47;;;49.72;;
41221;SDS011;26952;42.884;23.918;2022-09-06T07:27:29;56.42;;;53.60;;
41221;SDS011;26952;42.884;23.918;2022-09-06T07:29:54;57.55;;;54.75;;
41221;SDS011;26952;42.884;23.918;2022-09-06T07:32:20;59.42;;;56.47;;
41221;SDS011;26952;42.884;23.918;2022-09-06T07:34:45;62.22;;;59.15;;
41221;SDS011;26952;42.884;23.918;2022-09-06T07:37:11;76.80;;;73.10;;
41221;SDS011;26952;42.884;23.918;2022-09-06T07:39:36;77.40;;;73.63;;
41221;SDS011;26952;42.884;23.918;2022-09-06T07:42:02;85.70;;;81.43;;
41221;SDS011;26952;42.884;23.918;2022-09-06T07:44:28;109.45;;;104.10;;
41221;SDS011;26952;42.884;23.918;2022-09-06T07:46:54;90.82;;;86.10;;
41221;SDS011;26952;42.884;23.918;2022-09-06T07:49:20;89.03;;;84.57;;
41221;SDS011;26952;42.884;23.918;2022-09-06T07:51:46;62.00;;;58.80;;
41221;SDS011;26952;42.884;23.918;2022-09-06T07:54:12;68.75;;;65.45;;
41221;SDS011;26952;42.884;23.918;2022-09-06T07:56:38;68.20;;;64.85;;
41221;SDS011;26952;42.884;23.918;2022-09-06T07:59:03;75.35;;;71.70;;
41221;SDS011;26952;42.884;23.918;2022-09-06T08:01:32;76.60;;;72.80;;
41221;SDS011;26952;42.884;23.918;2022-09-06T08:06:33;89.55;;;84.88;;
41221;SDS011;26952;42.884;23.918;2022-09-06T08:09:02;88.70;;;83.90;;
41221;SDS011;26952;42.884;23.918;2022-09-06T08:11:31;95.32;;;90.10;;
41221;SDS011;26952;42.884;23.918;2022-09-06T08:13:58;90.78;;;85.63;;
41221;SDS011;26952;42.884;23.918;2022-09-06T08:16:25;92.38;;;87.15;;
41221;SDS011;26952;42.884;23.918;2022-09-06T08:18:53;97.45;;;92.15;;
41221;SDS011;26952;42.884;23.918;2022-09-06T08:21:20;101.90;;;96.38;;
41221;SDS011;26952;42.884;23.918;2022-09-06T08:23:48;113.60;;;107.47;;
41221;SDS011;26952;42.884;23.918;2022-09-06T08:26:15;115.78;;;109.80;;
41221;SDS011;26952;42.884;23.918;2022-09-06T08:28:41;115.28;;;109.25;;
41221;SDS011;26952;42.884;23.918;2022-09-06T08:31:08;95.55;;;90.75;;
41221;SDS011;26952;42.884;23.918;2022-09-06T08:33:37;73.13;;;69.50;;
41221;SDS011;26952;42.884;23.918;2022-09-06T08:36:03;97.78;;;92.88;;
41221;SDS011;26952;42.884;23.918;2022-09-06T08:38:30;66.85;;;63.25;;
41221;SDS011;26952;42.884;23.918;2022-09-06T08:41:05;83.82;;;79.38;;
41221;SDS011;26952;42.884;23.918;2022-09-06T08:46:02;82.15;;;78.03;;
41221;SDS011;26952;42.884;23.918;2022-09-06T08:48:29;77.07;;;73.35;;
41221;SDS011;26952;42.884;23.918;2022-09-06T08:51:05;64.87;;;61.67;;
41221;SDS011;26952;42.884;23.918;2022-09-06T08:53:50;71.40;;;67.70;;
41221;SDS011;26952;42.884;23.918;2022-09-06T08:56:30;71.05;;;67.22;;
41221;SDS011;26952;42.884;23.918;2022-09-06T08:59:03;66.80;;;63.50;;
41221;SDS011;26952;42.884;23.918;2022-09-06T09:04:28;56.28;;;53.08;;
41221;SDS011;26952;42.884;23.918;2022-09-06T09:07:09;63.92;;;60.65;;
41221;SDS011;26952;42.884;23.918;2022-09-06T09:09:39;74.82;;;71.13;;
41221;SDS011;26952;42.884;23.918;2022-09-06T09:12:04;72.85;;;69.03;;
41221;SDS011;26952;42.884;23.918;2022-09-06T09:14:32;71.43;;;67.88;;
41221;SDS011;26952;42.884;23.918;2022-09-06T09:17:08;74.30;;;70.53;;
41221;SDS011;26952;42.884;23.918;2022-09-06T09:19:56;73.35;;;69.63;;
41221;SDS011;26952;42.884;23.918;2022-09-06T09:22:22;75.75;;;71.85;;
41221;SDS011;26952;42.884;23.918;2022-09-06T09:24:50;69.50;;;66.07;;
41221;SDS011;26952;42.884;23.918;2022-09-06T09:27:23;77.22;;;73.35;;
41221;SDS011;26952;42.884;23.918;2022-09-06T09:37:45;86.07;;;81.78;;
41221;SDS011;26952;42.884;23.918;2022-09-06T09:40:12;84.45;;;80.25;;
41221;SDS011;26952;42.884;23.918;2022-09-06T09:42:51;71.03;;;67.47;;
41221;SDS011;26952;42.884;23.918;2022-09-06T09:47:44;76.78;;;72.90;;
41221;SDS011;26952;42.884;23.918;2022-09-06T09:50:30;77.82;;;73.82;;
41221;SDS011;26952;42.884;23.918;2022-09-06T09:53:07;72.07;;;68.50;;
41221;SDS011;26952;42.884;23.918;2022-09-06T09:55:35;76.90;;;73.10;;
41221;SDS011;26952;42.884;23.918;2022-09-06T09:58:01;53.08;;;50.50;;
41221;SDS011;26952;42.884;23.918;2022-09-06T10:00:45;75.25;;;71.47;;
41221;SDS011;26952;42.884;23.918;2022-09-06T10:03:14;78.05;;;74.25;;
41221;SDS011;26952;42.884;23.918;2022-09-06T10:05:53;74.18;;;70.53;;
41221;SDS011;26952;42.884;23.918;2022-09-06T10:08:20;79.47;;;75.57;;
41221;SDS011;26952;42.884;23.918;2022-09-06T10:10:49;81.43;;;77.35;;
41221;SDS011;26952;42.884;23.918;2022-09-06T10:13:22;80.72;;;76.78;;
41221;SDS011;26952;42.884;23.918;2022-09-06T10:15:57;63.13;;;59.75;;
41221;SDS011;26952;42.884;23.918;2022-09-06T10:18:38;73.57;;;69.95;;
41221;SDS011;26952;42.884;23.918;2022-09-06T10:28:40;76.90;;;73.03;;
41221;SDS011;26952;42.884;23.918;2022-09-06T10:31:08;68.65;;;65.20;;
41221;SDS011;26952;42.884;23.918;2022-09-06T10:34:00;62.72;;;59.65;;
41221;SDS011;26952;42.884;23.918;2022-09-06T10:36:33;69.20;;;65.68;;
41221;SDS011;26952;42.884;23.918;2022-09-06T10:42:05;69.90;;;66.50;;
41221;SDS011;26952;42.884;23.918;2022-09-06T10:50:32;64.15;;;61.05;;
41221;SDS011;26952;42.884;23.918;2022-09-06T10:59:08;69.22;;;65.88;;
41221;SDS011;26952;42.884;23.918;2022-09-06T11:01:37;67.85;;;64.50;;
41221;SDS011;26952;42.884;23.918;2022-09-06T11:04:09;69.78;;;66.00;;
41221;SDS011;26952;42.884;23.918;2022-09-06T11:06:44;61.20;;;58.08;;
41221;SDS011;26952;42.884;23.918;2022-09-06T11:12:12;50.63;;;48.15;;
41221;SDS011;26952;42.884;23.918;2022-09-06T11:14:42;74.90;;;70.90;;
41221;SDS011;26952;42.884;23.918;2022-09-06T11:17:17;59.63;;;56.60;;
41221;SDS011;26952;42.884;23.918;2022-09-06T11:20:02;51.58;;;49.00;;
41221;SDS011;26952;42.884;23.918;2022-09-06T11:25:42;74.10;;;70.28;;
41221;SDS011;26952;42.884;23.918;2022-09-06T11:28:29;74.20;;;70.50;;
41221;SDS011;26952;42.884;23.918;2022-09-06T11:31:01;68.97;;;65.55;;
41221;SDS011;26952;42.884;23.918;2022-09-06T11:33:29;47.10;;;44.78;;
41221;SDS011;26952;42.884;23.918;2022-09-06T11:38:58;45.22;;;42.90;;
41221;SDS011;26952;42.884;23.918;2022-09-06T11:41:29;40.00;;;38.00;;
41221;SDS011;26952;42.884;23.918;2022-09-06T11:43:58;40.50;;;38.40;;
41221;SDS011;26952;42.884;23.918;2022-09-06T11:48:59;52.10;;;49.40;;
41221;SDS011;26952;42.884;23.918;2022-09-06T11:51:44;65.90;;;62.60;;
41221;SDS011;26952;42.884;23.918;2022-09-06T12:07:28;44.17;;;41.90;;
41221;SDS011;26952;42.884;23.918;2022-09-06T12:09:56;49.15;;;46.55;;
41221;SDS011;26952;42.884;23.918;2022-09-06T12:12:44;82.72;;;78.43;;
41221;SDS011;26952;42.884;23.918;2022-09-06T12:17:55;50.20;;;47.67;;
41221;SDS011;26952;42.884;23.918;2022-09-06T12:25:59;44.55;;;42.17;;
41221;SDS011;26952;42.884;23.918;2022-09-06T12:28:26;48.53;;;46.03;;
41221;SDS011;26952;42.884;23.918;2022-09-06T12:30:57;61.20;;;58.13;;
41221;SDS011;26952;42.884;23.918;2022-09-06T12:36:10;62.60;;;59.47;;
41221;SDS011;26952;42.884;23.918;2022-09-06T12:38:54;60.78;;;57.80;;
41221;SDS011;26952;42.884;23.918;2022-09-06T12:41:20;52.50;;;49.85;;
41221;SDS011;26952;42.884;23.918;2022-09-06T12:43:47;51.08;;;48.50;;
41221;SDS011;26952;42.884;23.918;2022-09-06T12:46:13;46.00;;;43.80;;
41221;SDS011;26952;42.884;23.918;2022-09-06T12:48:38;45.45;;;43.17;;
41221;SDS011;26952;42.884;23.918;2022-09-06T12:51:09;46.65;;;44.38;;
41221;SDS011;26952;42.884;23.918;2022-09-06T12:53:53;38.63;;;36.75;;
41221;SDS011;26952;42.884;23.918;2022-09-06T12:58:50;40.58;;;38.40;;
41221;SDS011;26952;42.884;23.918;2022-09-06T13:03:59;59.40;;;56.20;;
41221;SDS011;26952;42.884;23.918;2022-09-06T13:06:38;80.22;;;76.18;;
41221;SDS011;26952;42.884;23.918;2022-09-06T13:09:10;101.75;;;96.53;;
41221;SDS011;26952;42.884;23.918;2022-09-06T13:11:41;111.40;;;105.75;;
41221;SDS011;26952;42.884;23.918;2022-09-06T13:14:43;105.28;;;99.97;;
41221;SDS011;26952;42.884;23.918;2022-09-06T13:17:01;114.75;;;108.95;;
41221;SDS011;26952;42.884;23.918;2022-09-06T13:21:54;139.40;;;131.68;;
41221;SDS011;26952;42.884;23.918;2022-09-06T13:30:02;130.00;;;123.60;;
41221;SDS011;26952;42.884;23.918;2022-09-06T13:32:30;137.40;;;130.65;;
41221;SDS011;26952;42.884;23.918;2022-09-06T13:34:56;132.25;;;125.53;;
41221;SDS011;26952;42.884;23.918;2022-09-06T13:37:27;132.68;;;125.90;;
41221;SDS011;26952;42.884;23.918;2022-09-06T13:39:55;125.50;;;119.07;;
41221;SDS011;26952;42.884;23.918;2022-09-06T13:45:15;109.78;;;104.43;;
41221;SDS011;26952;42.884;23.918;2022-09-06T13:47:52;116.30;;;110.60;;
41221;SDS011;26952;42.884;23.918;2022-09-06T13:50:18;116.72;;;111.05;;
41221;SDS011;26952;42.884;23.918;2022-09-06T13:52:44;116.05;;;110.22;;
41221;SDS011;26952;42.884;23.918;2022-09-06T13:55:11;111.18;;;105.65;;
41221;SDS011;26952;42.884;23.918;2022-09-06T13:57:39;113.13;;;107.40;;
41221;SDS011;26952;42.884;23.918;2022-09-06T14:00:05;112.35;;;106.75;;
41221;SDS011;26952;42.884;23.918;2022-09-06T14:02:31;107.32;;;101.85;;
41221;SDS011;26952;42.884;23.918;2022-09-06T14:04:57;122.28;;;116.03;;
41221;SDS011;26952;42.884;23.918;2022-09-06T14:07:22;118.65;;;112.65;;
41221;SDS011;26952;42.884;23.918;2022-09-06T14:09:47;122.60;;;116.18;;
41221;SDS011;26952;42.884;23.918;2022-09-06T14:12:15;113.30;;;107.72;;
41221;SDS011;26952;42.884;23.918;2022-09-06T14:14:40;119.35;;;113.40;;
41221;SDS011;26952;42.884;23.918;2022-09-06T14:17:05;119.00;;;113.03;;
41221;SDS011;26952;42.884;23.918;2022-09-06T14:19:31;114.53;;;108.47;;
41221;SDS011;26952;42.884;23.918;2022-09-06T14:21:56;122.22;;;116.00;;
41221;SDS011;26952;42.884;23.918;2022-09-06T14:24:22;129.95;;;123.30;;
41221;SDS011;26952;42.884;23.918;2022-09-06T14:26:47;119.43;;;112.85;;
41221;SDS011;26952;42.884;23.918;2022-09-06T14:29:13;126.65;;;120.35;;
41221;SDS011;26952;42.884;23.918;2022-09-06T14:31:38;129.68;;;123.10;;
41221;SDS011;26952;42.884;23.918;2022-09-06T14:34:04;127.50;;;120.78;;
41221;SDS011;26952;42.884;23.918;2022-09-06T14:36:30;138.73;;;131.73;;
41221;SDS011;26952;42.884;23.918;2022-09-06T14:38:57;130.65;;;123.90;;
41221;SDS011;26952;42.884;23.918;2022-09-06T14:41:23;137.02;;;130.07;;
41221;SDS011;26952;42.884;23.918;2022-09-06T14:43:50;127.68;;;121.18;;
41221;SDS011;26952;42.884;23.918;2022-09-06T14:46:17;124.15;;;117.70;;
41221;SDS011;26952;42.884;23.918;2022-09-06T14:48:44;122.07;;;115.75;;
41221;SDS011;26952;42.884;23.918;2022-09-06T14:53:41;132.60;;;125.82;;
41221;SDS011;26952;42.884;23.918;2022-09-06T14:56:08;127.65;;;121.22;;
41221;SDS011;26952;42.884;23.918;2022-09-06T14:58:35;125.60;;;118.95;;
41221;SDS011;26952;42.884;23.918;2022-09-06T15:01:21;126.72;;;120.40;;
41221;SDS011;26952;42.884;23.918;2022-09-06T15:03:49;124.13;;;117.82;;
41221;SDS011;26952;42.884;23.918;2022-09-06T15:06:18;119.43;;;113.30;;
41221;SDS011;26952;42.884;23.918;2022-09-06T15:08:45;114.70;;;108.85;;
41221;SDS011;26952;42.884;23.918;2022-09-06T15:11:12;115.75;;;109.80;;
41221;SDS011;26952;42.884;23.918;2022-09-06T15:13:39;130.35;;;123.47;;
41221;SDS011;26952;42.884;23.918;2022-09-06T15:16:05;117.15;;;111.00;;
41221;SDS011;26952;42.884;23.918;2022-09-06T15:18:32;125.20;;;118.47;;
41221;SDS011;26952;42.884;23.918;2022-09-06T15:20:57;121.50;;;115.30;;
41221;SDS011;26952;42.884;23.918;2022-09-06T15:23:32;125.68;;;118.80;;
41221;SDS011;26952;42.884;23.918;2022-09-06T15:25:57;126.18;;;119.60;;
41221;SDS011;26952;42.884;23.918;2022-09-06T15:28:22;129.90;;;123.18;;
41221;SDS011;26952;42.884;23.918;2022-09-06T15:30:48;125.93;;;119.32;;
41221;SDS011;26952;42.884;23.918;2022-09-06T15:33:13;129.38;;;122.60;;
41221;SDS011;26952;42.884;23.918;2022-09-06T15:35:42;122.35;;;115.72;;
41221;SDS011;26952;42.884;23.918;2022-09-06T15:38:08;125.88;;;119.25;;
41221;SDS011;26952;42.884;23.918;2022-09-06T15:40:35;135.00;;;127.50;;
41221;SDS011;26952;42.884;23.918;2022-09-06T15:43:00;135.27;;;128.20;;
41221;SDS011;26952;42.884;23.918;2022-09-06T15:45:27;129.13;;;122.43;;
41221;SDS011;26952;42.884;23.918;2022-09-06T15:47:53;135.80;;;128.75;;
41221;SDS011;26952;42.884;23.918;2022-09-06T15:50:19;125.10;;;118.65;;
41221;SDS011;26952;42.884;23.918;2022-09-06T15:52:46;136.90;;;129.70;;
41221;SDS011;26952;42.884;23.918;2022-09-06T15:55:11;136.40;;;129.02;;
41221;SDS011;26952;42.884;23.918;2022-09-06T15:57:55;127.00;;;120.55;;
41221;SDS011;26952;42.884;23.918;2022-09-06T16:00:21;121.47;;;115.22;;
41221;SDS011;26952;42.884;23.918;2022-09-06T16:02:47;123.35;;;117.00;;
41221;SDS011;26952;42.884;23.918;2022-09-06T16:05:13;116.70;;;110.20;;
41221;SDS011;26952;42.884;23.918;2022-09-06T16:07:39;114.50;;;108.72;;
41221;SDS011;26952;42.884;23.918;2022-09-06T16:10:07;124.88;;;118.20;;
41221;SDS011;26952;42.884;23.918;2022-09-06T16:12:35;115.88;;;110.13;;
41221;SDS011;26952;42.884;23.918;2022-09-06T16:15:01;114.20;;;108.25;;
41221;SDS011;26952;42.884;23.918;2022-09-06T16:17:28;120.80;;;114.75;;
41221;SDS011;26952;42.884;23.918;2022-09-06T16:19:55;115.75;;;109.85;;
41221;SDS011;26952;42.884;23.918;2022-09-06T16:22:20;119.32;;;113.20;;
41221;SDS011;26952;42.884;23.918;2022-09-06T16:24:46;117.68;;;111.65;;